Time;durP1;ratioP1;P1;durP2;ratioP2;P2;SDS_P1;SDS_P2;PMS_P1;PMS_P2;Temp;Humidity;BMP_temperature;BMP_pressure;BME280_temperature;BME280_humidity;BME280_pressure;Samples;Min_cycle;Max_cycle;Signal;HPM_P1;HPM_P2
2023/10/30 00:01:54;;;;;;;5.00;1.35;;;;;13.20;97378.00;;;;5032972;28;20055;-61
2023/10/30 00:04:21;;;;;;;6.05;2.17;;;;;13.10;97371.00;;;;5033505;28;20495;-63
2023/10/30 00:06:48;;;;;;;5.32;1.50;;;;;13.10;97368.00;;;;5033964;28;20048;-63
2023/10/30 00:09:17;;;;;;;3.08;1.05;;;;;13.10;97359.00;;;;5033780;28;20120;-63
2023/10/30 00:11:46;;;;;;;5.88;1.70;;;;;13.10;97364.00;;;;5033996;28;20451;-63
2023/10/30 00:14:13;;;;;;;4.65;1.50;;;;;13.00;97367.00;;;;5032514;28;20045;-62
2023/10/30 00:16:40;;;;;;;3.72;1.02;;;;;13.00;97362.00;;;;5032580;28;20051;-63
2023/10/30 00:19:06;;;;;;;9.63;2.20;;;;;13.00;97346.00;;;;5033539;28;20076;-63
2023/10/30 00:21:33;;;;;;;3.97;1.20;;;;;12.90;97339.00;;;;5033843;28;20049;-62
2023/10/30 00:24:01;;;;;;;5.03;1.08;;;;;12.90;97346.00;;;;5033122;28;20124;-63
2023/10/30 00:26:28;;;;;;;5.22;1.25;;;;;12.90;97326.00;;;;5033663;28;20041;-63
2023/10/30 00:28:55;;;;;;;4.85;1.35;;;;;12.90;97337.00;;;;5032340;28;20063;-63
2023/10/30 00:31:22;;;;;;;4.80;1.00;;;;;12.90;97357.00;;;;5033536;28;20045;-63
2023/10/30 00:33:49;;;;;;;4.90;1.33;;;;;12.90;97364.00;;;;5032988;28;20136;-63
2023/10/30 00:36:15;;;;;;;6.78;1.38;;;;;12.90;97382.00;;;;5033533;28;20703;-64
2023/10/30 00:38:42;;;;;;;8.13;1.73;;;;;12.90;97381.00;;;;5033519;28;20091;-62
2023/10/30 00:41:10;;;;;;;6.95;1.65;;;;;12.80;97390.00;;;;5032160;28;20072;-63
2023/10/30 00:43:37;;;;;;;12.23;2.72;;;;;12.80;97385.00;;;;5032126;28;20184;-64
2023/10/30 00:46:06;;;;;;;6.38;1.23;;;;;12.90;97388.00;;;;5032320;28;20140;-62
2023/10/30 00:48:33;;;;;;;6.80;1.80;;;;;12.80;97381.00;;;;5015577;28;20052;-63
2023/10/30 00:51:01;;;;;;;5.18;1.30;;;;;12.80;97344.00;;;;5033156;28;20048;-63
2023/10/30 00:53:27;;;;;;;5.72;1.40;;;;;12.80;97353.00;;;;5032737;28;20501;-63
2023/10/30 00:55:54;;;;;;;9.90;1.35;;;;;12.80;97374.00;;;;5031723;28;20076;-63
2023/10/30 00:58:20;;;;;;;5.18;1.40;;;;;12.80;97368.00;;;;5032844;28;20046;-63
2023/10/30 01:00:47;;;;;;;4.90;1.20;;;;;12.70;97396.00;;;;5031515;28;20585;-63
2023/10/30 01:03:15;;;;;;;2.80;0.80;;;;;12.70;97394.00;;;;5015172;28;20046;-64
2023/10/30 01:05:42;;;;;;;2.88;1.05;;;;;12.70;97378.00;;;;5032279;28;20383;-63
2023/10/30 01:08:09;;;;;;;3.72;1.40;;;;;12.80;97377.00;;;;5032563;28;20049;-63
2023/10/30 01:10:36;;;;;;;3.70;1.02;;;;;12.70;97377.00;;;;5031628;28;20049;-63
2023/10/30 01:13:03;;;;;;;5.35;1.10;;;;;12.70;97368.00;;;;5031279;28;20141;-63
2023/10/30 01:15:29;;;;;;;3.92;1.08;;;;;12.70;97373.00;;;;5030636;28;20057;-63
2023/10/30 01:17:56;;;;;;;2.80;0.98;;;;;12.70;97354.00;;;;5032324;28;20368;-63
2023/10/30 01:20:23;;;;;;;2.20;1.27;;;;;12.70;97362.00;;;;5032399;28;20132;-63
2023/10/30 01:22:50;;;;;;;3.08;0.98;;;;;12.80;97353.00;;;;5032675;28;20465;-63
2023/10/30 01:25:16;;;;;;;3.90;1.10;;;;;12.70;97361.00;;;;5031669;28;20502;-64
2023/10/30 01:27:43;;;;;;;3.42;1.17;;;;;12.70;97360.00;;;;5032201;28;20048;-63
2023/10/30 01:30:11;;;;;;;3.17;1.35;;;;;12.70;97354.00;;;;5032364;28;20037;-64
2023/10/30 01:32:38;;;;;;;4.57;0.80;;;;;12.70;97350.00;;;;5032339;28;20049;-64
2023/10/30 01:35:04;;;;;;;3.65;0.95;;;;;12.70;97355.00;;;;5031720;28;20069;-64
2023/10/30 01:37:31;;;;;;;4.15;1.00;;;;;12.70;97344.00;;;;5032575;28;20489;-62
2023/10/30 01:39:58;;;;;;;3.60;1.00;;;;;12.80;97333.00;;;;5032199;28;20103;-65
2023/10/30 01:42:24;;;;;;;4.05;1.30;;;;;12.80;97330.00;;;;5030846;28;20049;-64
2023/10/30 01:44:53;;;;;;;4.93;1.25;;;;;12.80;97339.00;;;;5031629;28;20453;-65
2023/10/30 01:47:21;;;;;;;4.93;0.98;;;;;12.80;97343.00;;;;5030851;28;20100;-65
2023/10/30 01:49:48;;;;;;;4.65;1.00;;;;;12.80;97337.00;;;;5031872;28;20509;-64
2023/10/30 01:52:17;;;;;;;4.47;1.00;;;;;12.80;97340.00;;;;5031816;28;20080;-65
2023/10/30 01:54:46;;;;;;;3.38;1.05;;;;;12.80;97321.00;;;;5030731;28;20060;-64
2023/10/30 01:57:15;;;;;;;2.58;0.75;;;;;12.90;97328.00;;;;5032157;28;20041;-64
2023/10/30 01:59:42;;;;;;;4.07;0.70;;;;;12.90;97334.00;;;;5030649;28;20045;-65
2023/10/30 02:02:09;;;;;;;2.13;1.08;;;;;13.00;97338.00;;;;5032078;28;20048;-64
2023/10/30 02:04:36;;;;;;;3.22;0.75;;;;;13.00;97333.00;;;;5030226;28;20072;-64
2023/10/30 02:07:03;;;;;;;1.55;0.60;;;;;12.90;97327.00;;;;5030695;28;20077;-64
2023/10/30 02:09:32;;;;;;;2.50;0.70;;;;;12.80;97329.00;;;;5030401;28;20736;-65
2023/10/30 02:11:59;;;;;;;2.67;0.93;;;;;12.80;97324.00;;;;5030862;28;20050;-65
2023/10/30 02:14:25;;;;;;;1.90;0.90;;;;;12.80;97320.00;;;;5031223;28;20041;-64
2023/10/30 02:16:52;;;;;;;1.80;1.00;;;;;12.80;97323.00;;;;5031508;28;20125;-64
2023/10/30 02:19:23;;;;;;;4.20;1.10;;;;;12.80;97334.00;;;;5031756;28;20410;-65
2023/10/30 02:21:55;;;;;;;4.28;0.95;;;;;12.70;97319.00;;;;5031903;28;20045;-65
2023/10/30 02:24:22;;;;;;;3.97;1.15;;;;;12.70;97319.00;;;;5029971;28;20048;-65
2023/10/30 02:26:50;;;;;;;1.42;0.63;;;;;12.80;97325.00;;;;5031770;28;20050;-64
2023/10/30 02:29:17;;;;;;;0.98;0.65;;;;;12.80;97312.00;;;;5030499;28;20042;-65
2023/10/30 02:31:45;;;;;;;2.50;0.90;;;;;12.80;97309.00;;;;5030448;28;20653;-65
2023/10/30 02:34:12;;;;;;;2.20;0.73;;;;;12.80;97296.00;;;;5029916;28;20087;-64
2023/10/30 02:36:39;;;;;;;3.25;1.00;;;;;12.80;97298.00;;;;5031661;28;20111;-64
2023/10/30 02:39:07;;;;;;;2.83;0.80;;;;;12.80;97301.00;;;;5034288;28;20144;-65
2023/10/30 02:41:34;;;;;;;1.52;0.70;;;;;12.80;97300.00;;;;5035627;28;20163;-64
2023/10/30 02:44:01;;;;;;;3.15;0.80;;;;;12.80;97294.00;;;;5034834;28;20107;-64
2023/10/30 02:46:27;;;;;;;2.65;0.80;;;;;12.80;97291.00;;;;5035485;28;20050;-63
2023/10/30 02:48:55;;;;;;;1.73;0.93;;;;;12.80;97287.00;;;;5033948;28;20049;-65
2023/10/30 02:51:22;;;;;;;4.07;0.88;;;;;12.80;97296.00;;;;5035679;28;20406;-64
2023/10/30 02:53:49;;;;;;;5.15;0.90;;;;;12.80;97301.00;;;;5033549;28;20049;-65
2023/10/30 02:56:15;;;;;;;1.80;0.80;;;;;12.80;97294.00;;;;5035644;28;20045;-65
2023/10/30 02:58:42;;;;;;;3.70;0.60;;;;;12.80;97287.00;;;;5035542;28;20107;-64
2023/10/30 03:01:09;;;;;;;3.20;0.80;;;;;12.80;97289.00;;;;5038221;28;20572;-64
2023/10/30 03:03:35;;;;;;;3.35;0.80;;;;;12.80;97288.00;;;;5035397;28;20120;-65
2023/10/30 03:06:02;;;;;;;2.45;0.90;;;;;12.90;97279.00;;;;5034952;28;20045;-65
2023/10/30 03:08:29;;;;;;;1.77;0.50;;;;;12.90;97281.00;;;;5036745;28;20580;-65
2023/10/30 03:10:55;;;;;;;3.88;0.60;;;;;12.90;97273.00;;;;5038490;28;20041;-65
2023/10/30 03:13:23;;;;;;;2.22;0.80;;;;;13.00;97285.00;;;;5036545;28;20126;-63
2023/10/30 03:15:49;;;;;;;2.70;0.82;;;;;13.00;97293.00;;;;5034769;28;20501;-65
2023/10/30 03:18:17;;;;;;;2.90;0.85;;;;;12.90;97290.00;;;;5017105;28;20686;-65
2023/10/30 03:20:44;;;;;;;3.25;0.90;;;;;12.90;97294.00;;;;5034939;28;20095;-65
2023/10/30 03:23:11;;;;;;;5.55;1.10;;;;;12.90;97303.00;;;;5034813;28;20069;-65
2023/10/30 03:25:37;;;;;;;2.88;0.65;;;;;12.90;97306.00;;;;5035776;28;20049;-65
2023/10/30 03:28:04;;;;;;;2.88;0.77;;;;;13.00;97313.00;;;;5035817;28;20080;-65
2023/10/30 03:30:34;;;;;;;0.80;0.70;;;;;12.90;97315.00;;;;5033947;28;20052;-64
2023/10/30 03:33:02;;;;;;;2.10;0.77;;;;;12.90;97313.00;;;;5034483;28;20054;-63
2023/10/30 03:35:30;;;;;;;1.38;0.65;;;;;12.90;97308.00;;;;5037272;28;20091;-63
2023/10/30 03:37:56;;;;;;;2.60;0.70;;;;;13.00;97322.00;;;;5039819;28;20167;-61
2023/10/30 03:40:23;;;;;;;1.75;0.57;;;;;13.00;97318.00;;;;5035887;28;20065;-62
2023/10/30 03:42:49;;;;;;;1.00;0.65;;;;;13.00;97325.00;;;;5035274;28;20053;-62
2023/10/30 03:45:16;;;;;;;2.55;1.30;;;;;13.00;97314.00;;;;5037328;28;20079;-61
2023/10/30 03:47:45;;;;;;;3.95;0.88;;;;;13.00;97310.00;;;;5036792;28;20510;-61
2023/10/30 03:50:13;;;;;;;1.42;0.90;;;;;13.00;97313.00;;;;5034604;28;20038;-63
2023/10/30 03:52:40;;;;;;;2.47;0.90;;;;;13.10;97319.00;;;;5033254;28;20055;-62
2023/10/30 03:55:07;;;;;;;1.35;0.70;;;;;13.10;97305.00;;;;5034030;28;20503;-63
2023/10/30 03:57:34;;;;;;;0.80;0.60;;;;;13.00;97309.00;;;;5019470;28;20136;-63
2023/10/30 04:00:01;;;;;;;1.85;0.70;;;;;13.10;97288.00;;;;5035380;28;20042;-62
2023/10/30 04:02:37;;;;;;;0.60;0.60;;;;;13.10;97296.00;;;;5034818;28;20056;-61
2023/10/30 04:05:04;;;;;;;1.10;0.75;;;;;13.10;97295.00;;;;5038224;28;20045;-62
2023/10/30 04:07:30;;;;;;;1.02;0.68;;;;;13.10;97301.00;;;;5037362;28;20050;-63
2023/10/30 04:09:57;;;;;;;0.73;0.57;;;;;13.20;97298.00;;;;5039600;28;20077;-60
2023/10/30 04:12:24;;;;;;;0.60;0.60;;;;;13.20;97302.00;;;;5035185;28;20065;-61
2023/10/30 04:14:51;;;;;;;1.60;0.73;;;;;13.20;97297.00;;;;5036607;28;20041;-61
2023/10/30 04:17:18;;;;;;;1.92;0.85;;;;;13.20;97294.00;;;;5038868;28;20049;-61
2023/10/30 04:19:44;;;;;;;0.68;0.68;;;;;13.20;97297.00;;;;5035446;28;20410;-64
2023/10/30 04:22:11;;;;;;;1.70;0.75;;;;;13.20;97296.00;;;;5035794;28;20052;-61
2023/10/30 04:24:37;;;;;;;0.93;0.63;;;;;13.20;97313.00;;;;5034192;28;20418;-60
2023/10/30 04:27:05;;;;;;;0.85;0.68;;;;;13.20;97311.00;;;;5033503;28;20433;-60
2023/10/30 04:29:32;;;;;;;1.77;0.60;;;;;13.20;97318.00;;;;5032613;28;20045;-61
2023/10/30 04:31:59;;;;;;;1.88;0.60;;;;;13.20;97303.00;;;;5033769;28;20073;-62
2023/10/30 04:34:25;;;;;;;2.15;0.98;;;;;13.20;97304.00;;;;5032949;28;20045;-61
2023/10/30 04:36:52;;;;;;;1.92;1.00;;;;;13.20;97309.00;;;;5033472;28;20056;-60
2023/10/30 04:39:19;;;;;;;1.42;0.65;;;;;13.30;97294.00;;;;5033420;28;20073;-64
2023/10/30 04:41:45;;;;;;;1.90;1.20;;;;;13.30;97306.00;;;;5033515;28;20049;-61
2023/10/30 04:44:12;;;;;;;2.78;1.33;;;;;13.30;97300.00;;;;5032931;28;20052;-61
2023/10/30 04:46:38;;;;;;;70.85;44.20;;;;;13.30;97304.00;;;;5033261;28;20140;-60
2023/10/30 04:49:05;;;;;;;2.78;1.80;;;;;13.30;97307.00;;;;5031877;28;20087;-64
2023/10/30 04:51:32;;;;;;;2.72;1.23;;;;;13.30;97305.00;;;;5033223;28;20572;-62
2023/10/30 04:53:58;;;;;;;0.80;0.68;;;;;13.30;97320.00;;;;5031458;28;20045;-65
2023/10/30 04:56:25;;;;;;;2.60;1.20;;;;;13.20;97317.00;;;;5033010;28;20056;-65
2023/10/30 04:58:51;;;;;;;2.17;1.40;;;;;13.20;97332.00;;;;5038380;28;20075;-62
2023/10/30 05:01:18;;;;;;;1.15;0.70;;;;;13.20;97328.00;;;;5045409;28;20068;-64
2023/10/30 05:03:44;;;;;;;3.13;0.80;;;;;13.20;97343.00;;;;5039229;28;20073;-64
2023/10/30 05:06:11;;;;;;;0.82;0.63;;;;;13.10;97344.00;;;;5043083;28;20053;-64
2023/10/30 05:08:38;;;;;;;2.30;0.93;;;;;13.20;97345.00;;;;5042481;28;20073;-63
2023/10/30 05:11:04;;;;;;;1.35;0.80;;;;;13.20;97354.00;;;;5043915;28;20033;-64
2023/10/30 05:13:31;;;;;;;3.10;1.00;;;;;13.20;97356.00;;;;5042006;28;20041;-65
2023/10/30 05:15:57;;;;;;;1.60;1.08;;;;;13.20;97363.00;;;;5043388;28;20053;-64
2023/10/30 05:18:25;;;;;;;0.85;0.68;;;;;13.10;97366.00;;;;5044136;28;20067;-64
2023/10/30 05:20:51;;;;;;;0.80;0.70;;;;;13.10;97370.00;;;;5038189;28;20056;-66
2023/10/30 05:23:18;;;;;;;3.63;0.98;;;;;13.20;97373.00;;;;5032733;28;20562;-64
2023/10/30 05:25:45;;;;;;;1.40;0.43;;;;;13.10;97364.00;;;;5033008;28;20079;-66
2023/10/30 05:28:11;;;;;;;1.63;1.10;;;;;13.10;97361.00;;;;5033755;28;20047;-65
2023/10/30 05:30:38;;;;;;;3.22;0.90;;;;;13.20;97359.00;;;;5033287;28;20041;-64
2023/10/30 05:33:06;;;;;;;1.10;0.70;;;;;13.20;97362.00;;;;5032657;28;20518;-65
2023/10/30 05:35:33;;;;;;;2.10;1.10;;;;;13.10;97365.00;;;;5030497;28;20054;-63
2023/10/30 05:37:59;;;;;;;1.95;0.75;;;;;13.20;97354.00;;;;5032137;28;20042;-63
2023/10/30 05:40:26;;;;;;;2.60;1.60;;;;;13.20;97339.00;;;;5034980;28;20116;-63
2023/10/30 05:42:52;;;;;;;16.10;9.25;;;;;13.30;97354.00;;;;5035550;28;20056;-65
2023/10/30 05:45:19;;;;;;;5.47;1.67;;;;;13.20;97341.00;;;;5033792;28;20048;-63
2023/10/30 05:47:46;;;;;;;2.13;1.15;;;;;13.20;97334.00;;;;5033847;28;20056;-62
2023/10/30 05:50:12;;;;;;;3.00;1.65;;;;;13.30;97345.00;;;;5035243;28;20494;-62
2023/10/30 05:52:39;;;;;;;2.45;1.10;;;;;13.30;97349.00;;;;5037473;28;20163;-62
2023/10/30 05:55:08;;;;;;;2.33;1.60;;;;;13.40;97362.00;;;;5037187;28;20116;-63
2023/10/30 05:57:36;;;;;;;2.08;1.05;;;;;13.40;97369.00;;;;5045411;28;20045;-63
2023/10/30 06:00:03;;;;;;;1.13;0.80;;;;;13.40;97365.00;;;;5037571;28;20052;-64
2023/10/30 06:02:30;;;;;;;4.50;1.55;;;;;13.40;97354.00;;;;5036956;28;20069;-63
2023/10/30 06:04:56;;;;;;;3.72;1.02;;;;;13.30;97337.00;;;;5039006;28;20053;-63
2023/10/30 06:07:23;;;;;;;2.20;1.02;;;;;13.10;97332.00;;;;5035985;28;20128;-63
2023/10/30 06:09:49;;;;;;;2.83;0.80;;;;;13.00;97338.00;;;;5037927;28;20069;-62
2023/10/30 06:12:16;;;;;;;0.75;0.60;;;;;12.90;97343.00;;;;5040075;28;20041;-63
2023/10/30 06:14:43;;;;;;;2.42;1.38;;;;;12.90;97335.00;;;;5041784;28;20414;-64
2023/10/30 06:17:10;;;;;;;2.47;1.25;;;;;13.00;97343.00;;;;5040664;28;20069;-64
2023/10/30 06:19:36;;;;;;;1.98;1.20;;;;;13.00;97338.00;;;;5042134;28;20132;-64
2023/10/30 06:22:03;;;;;;;1.80;1.02;;;;;13.10;97342.00;;;;5040653;28;20113;-64
2023/10/30 06:24:31;;;;;;;3.22;2.38;;;;;13.10;97329.00;;;;5036344;28;20414;-64
2023/10/30 06:26:58;;;;;;;1.45;1.08;;;;;13.00;97328.00;;;;5054486;28;20389;-63
2023/10/30 06:29:24;;;;;;;3.38;1.15;;;;;13.00;97334.00;;;;5059546;28;20037;-62
2023/10/30 06:31:51;;;;;;;1.20;1.10;;;;;13.10;97341.00;;;;5060862;28;20049;-62
2023/10/30 06:34:17;;;;;;;1.00;0.90;;;;;13.20;97338.00;;;;5059634;28;20163;-64
2023/10/30 06:36:46;;;;;;;1.02;0.90;;;;;13.20;97335.00;;;;5060621;28;20036;-62
2023/10/30 06:39:17;;;;;;;3.13;1.65;;;;;13.30;97353.00;;;;5060065;28;20056;-63
2023/10/30 06:41:44;;;;;;;4.50;1.98;;;;;13.30;97361.00;;;;5060712;28;20057;-61
2023/10/30 06:44:11;;;;;;;2.15;1.10;;;;;13.30;97370.00;;;;5059898;28;20093;-61
2023/10/30 06:46:37;;;;;;;1.00;0.65;;;;;13.30;97377.00;;;;5060046;28;20045;-62
2023/10/30 06:49:04;;;;;;;3.90;1.73;;;;;13.40;97384.00;;;;5060426;28;20049;-62
2023/10/30 06:51:30;;;;;;;2.45;1.30;;;;;13.40;97375.00;;;;5059870;28;20048;-62
2023/10/30 06:53:57;;;;;;;4.28;2.00;;;;;13.40;97381.00;;;;5058929;28;20036;-61
2023/10/30 06:56:23;;;;;;;3.22;2.15;;;;;13.40;97387.00;;;;5059450;28;20050;-62
2023/10/30 06:58:50;;;;;;;1.45;1.23;;;;;13.40;97384.00;;;;5060660;28;20094;-63
2023/10/30 07:01:17;;;;;;;3.85;3.05;;;;;13.50;97383.00;;;;5060243;28;20049;-60
2023/10/30 07:03:43;;;;;;;2.50;1.60;;;;;13.40;97375.00;;;;5059277;28;20033;-61
2023/10/30 07:06:11;;;;;;;2.70;1.58;;;;;13.40;97378.00;;;;5059712;28;20029;-62
2023/10/30 07:08:37;;;;;;;2.88;1.40;;;;;13.40;97380.00;;;;5059335;28;20049;-61
2023/10/30 07:11:04;;;;;;;3.33;1.80;;;;;13.40;97390.00;;;;5058926;28;20029;-62
2023/10/30 07:13:31;;;;;;;2.13;1.55;;;;;13.40;97390.00;;;;5055757;28;20056;-64
2023/10/30 07:15:57;;;;;;;4.30;1.60;;;;;13.40;97392.00;;;;5035466;28;20076;-63
2023/10/30 07:18:24;;;;;;;3.65;2.10;;;;;13.50;97402.00;;;;5034163;28;20049;-63
2023/10/30 07:20:50;;;;;;;4.50;1.80;;;;;13.50;97405.00;;;;5035356;28;20037;-64
2023/10/30 07:23:17;;;;;;;2.85;1.35;;;;;13.50;97386.00;;;;5039132;28;20037;-63
2023/10/30 07:25:44;;;;;;;1.40;1.10;;;;;13.50;97383.00;;;;5040057;28;20406;-64
2023/10/30 07:28:11;;;;;;;3.53;1.10;;;;;13.50;97383.00;;;;5035352;28;20116;-64
2023/10/30 07:30:38;;;;;;;3.10;1.23;;;;;13.50;97395.00;;;;5034855;28;20048;-64
2023/10/30 07:33:05;;;;;;;3.40;1.80;;;;;13.60;97407.00;;;;5035169;28;20045;-65
2023/10/30 07:35:34;;;;;;;3.00;1.30;;;;;13.60;97406.00;;;;5033435;28;20049;-64
2023/10/30 07:38:01;;;;;;;1.23;1.10;;;;;13.60;97397.00;;;;5034775;28;20037;-65
2023/10/30 07:40:27;;;;;;;5.00;1.85;;;;;13.70;97405.00;;;;5035687;28;20061;-64
2023/10/30 07:42:54;;;;;;;1.95;1.10;;;;;13.80;97399.00;;;;5039304;28;20041;-63
2023/10/30 07:45:21;;;;;;;1.48;1.00;;;;;13.90;97397.00;;;;5040256;28;20053;-64
2023/10/30 07:47:48;;;;;;;2.20;1.40;;;;;13.90;97395.00;;;;5039098;28;20046;-63
2023/10/30 07:50:15;;;;;;;1.63;1.13;;;;;13.90;97398.00;;;;5034512;28;20068;-65
2023/10/30 07:52:42;;;;;;;2.92;1.30;;;;;13.90;97397.00;;;;5034439;28;20045;-64
2023/10/30 07:55:09;;;;;;;10.63;7.50;;;;;13.90;97402.00;;;;5033646;28;20049;-64
2023/10/30 07:57:36;;;;;;;3.28;2.22;;;;;13.80;97389.00;;;;5034312;28;20382;-65
2023/10/30 08:00:04;;;;;;;2.10;1.50;;;;;13.70;97387.00;;;;5033970;28;20038;-63
2023/10/30 08:02:38;;;;;;;2.63;1.42;;;;;13.60;97372.00;;;;5034120;28;20530;-64
2023/10/30 08:05:06;;;;;;;1.92;1.20;;;;;13.50;97365.00;;;;5033295;28;20491;-62
2023/10/30 08:07:34;;;;;;;1.73;0.77;;;;;13.50;97375.00;;;;5034198;28;20121;-64
2023/10/30 08:10:02;;;;;;;1.13;0.90;;;;;13.40;97375.00;;;;5033756;28;20041;-64
2023/10/30 08:12:29;;;;;;;2.47;1.40;;;;;13.50;97380.00;;;;5034052;28;20045;-64
2023/10/30 08:14:55;;;;;;;1.35;1.25;;;;;13.50;97372.00;;;;5033126;28;20051;-65
2023/10/30 08:17:22;;;;;;;1.50;1.30;;;;;13.40;97362.00;;;;5033909;28;20046;-65
2023/10/30 08:19:48;;;;;;;5.13;1.40;;;;;13.50;97357.00;;;;5033758;28;20495;-63
2023/10/30 08:22:15;;;;;;;6.65;1.80;;;;;13.40;97349.00;;;;5033757;28;20076;-62
2023/10/30 08:24:42;;;;;;;3.55;1.85;;;;;13.40;97361.00;;;;5033080;28;20042;-64
2023/10/30 08:27:09;;;;;;;4.45;2.03;;;;;13.40;97363.00;;;;5033600;28;20049;-64
2023/10/30 08:29:35;;;;;;;3.67;2.33;;;;;13.40;97356.00;;;;5033523;28;20058;-65
2023/10/30 08:32:02;;;;;;;4.85;2.00;;;;;13.40;97358.00;;;;5033675;28;20405;-64
2023/10/30 08:34:28;;;;;;;4.93;2.70;;;;;13.50;97366.00;;;;5031350;28;20149;-64
2023/10/30 08:36:55;;;;;;;3.00;2.30;;;;;13.60;97371.00;;;;5031763;28;20115;-65
2023/10/30 08:39:22;;;;;;;6.32;1.67;;;;;13.80;97371.00;;;;5033284;28;20383;-65
2023/10/30 08:41:48;;;;;;;4.78;1.90;;;;;13.80;97369.00;;;;5033283;28;20167;-65
2023/10/30 08:44:15;;;;;;;3.85;2.20;;;;;13.80;97354.00;;;;5032766;28;20047;-65
2023/10/30 08:46:41;;;;;;;2.58;1.70;;;;;13.70;97344.00;;;;5033436;28;20033;-65
2023/10/30 08:49:08;;;;;;;2.22;1.50;;;;;13.60;97345.00;;;;5032994;28;20045;-65
2023/10/30 08:51:41;;;;;;;2.28;1.10;;;;;13.60;97339.00;;;;5035161;28;20052;-64
2023/10/30 08:54:26;;;;;;;0.82;0.82;;;;;13.60;97332.00;;;;5035761;28;20410;-62
2023/10/30 08:56:53;;;;;;;2.38;1.10;;;;;13.60;97332.00;;;;5037691;28;20046;-64
2023/10/30 08:59:30;;;;;;;0.93;0.80;;;;;13.70;97327.00;;;;5035605;28;20052;-65
2023/10/30 09:01:57;;;;;;;1.85;1.02;;;;;13.70;97318.00;;;;5033104;28;20474;-63
2023/10/30 09:04:24;;;;;;;1.75;1.08;;;;;13.80;97320.00;;;;5032009;28;20049;-62
2023/10/30 09:06:51;;;;;;;4.75;1.70;;;;;13.80;97305.00;;;;5032701;28;20077;-65
2023/10/30 09:09:18;;;;;;;1.80;1.50;;;;;13.80;97303.00;;;;5033357;28;20053;-65
2023/10/30 09:11:44;;;;;;;6.22;4.38;;;;;13.90;97290.00;;;;5033603;28;20041;-64
2023/10/30 09:14:11;;;;;;;2.33;1.50;;;;;14.00;97286.00;;;;5032367;28;20041;-64
2023/10/30 09:16:37;;;;;;;4.00;1.48;;;;;14.10;97290.00;;;;5033057;28;20037;-64
2023/10/30 09:19:04;;;;;;;2.88;1.08;;;;;14.20;97287.00;;;;5032491;28;20046;-65
2023/10/30 09:21:30;;;;;;;2.22;1.30;;;;;14.20;97285.00;;;;5032633;28;20051;-64
2023/10/30 09:23:57;;;;;;;1.08;0.95;;;;;14.10;97283.00;;;;5030784;28;20410;-64
2023/10/30 09:26:24;;;;;;;1.55;1.20;;;;;14.10;97275.00;;;;5032933;28;20042;-66
2023/10/30 09:28:52;;;;;;;1.58;1.20;;;;;14.20;97280.00;;;;5032383;28;20395;-64
2023/10/30 09:31:19;;;;;;;1.55;0.90;;;;;14.20;97274.00;;;;5032784;28;20087;-64
2023/10/30 09:33:46;;;;;;;1.20;1.10;;;;;14.20;97277.00;;;;5031860;28;20049;-65
2023/10/30 09:36:13;;;;;;;1.50;0.75;;;;;14.20;97273.00;;;;5032774;28;20037;-65
2023/10/30 09:38:41;;;;;;;0.77;0.70;;;;;14.20;97272.00;;;;5031362;28;20048;-64
2023/10/30 09:41:11;;;;;;;4.13;1.00;;;;;14.10;97266.00;;;;5032281;28;20068;-64
2023/10/30 09:43:38;;;;;;;0.85;0.60;;;;;14.10;97269.00;;;;5031481;28;20077;-65
2023/10/30 09:46:06;;;;;;;0.80;0.60;;;;;14.10;97274.00;;;;5032173;28;20073;-66
2023/10/30 09:48:36;;;;;;;1.33;0.93;;;;;14.00;97276.00;;;;5032631;28;20054;-66
2023/10/30 09:51:06;;;;;;;0.73;0.65;;;;;14.00;97271.00;;;;5031935;28;20056;-65
2023/10/30 09:53:35;;;;;;;1.10;0.60;;;;;14.00;97269.00;;;;5032391;28;20491;-65
2023/10/30 09:56:03;;;;;;;0.90;0.80;;;;;14.00;97266.00;;;;5032130;28;20052;-65
2023/10/30 09:58:31;;;;;;;1.10;0.90;;;;;14.10;97277.00;;;;5031978;28;20512;-65
2023/10/30 10:00:57;;;;;;;1.25;0.90;;;;;14.10;97262.00;;;;5032126;28;20037;-65
2023/10/30 10:03:25;;;;;;;0.98;0.80;;;;;14.20;97236.00;;;;5031589;28;20046;-62
2023/10/30 10:05:58;;;;;;;0.77;0.55;;;;;14.10;97228.00;;;;5031881;28;20076;-64
2023/10/30 10:08:26;;;;;;;1.17;0.57;;;;;14.10;97223.00;;;;5032005;28;20124;-63
2023/10/30 10:10:56;;;;;;;2.55;0.60;;;;;14.20;97225.00;;;;5030479;28;20487;-62
2023/10/30 10:13:27;;;;;;;1.10;0.60;;;;;14.10;97222.00;;;;5031734;28;20050;-63
2023/10/30 10:15:55;;;;;;;2.17;1.10;;;;;14.00;97216.00;;;;5030637;28;20100;-64
2023/10/30 10:18:32;;;;;;;2.30;0.60;;;;;14.00;97219.00;;;;5030541;28;20052;-64
2023/10/30 10:21:11;;;;;;;1.83;1.27;;;;;13.90;97213.00;;;;5030700;28;20510;-63
2023/10/30 10:23:38;;;;;;;1.70;0.80;;;;;13.90;97217.00;;;;5030158;28;20565;-65
2023/10/30 10:26:15;;;;;;;1.15;1.00;;;;;13.80;97203.00;;;;5031718;28;20041;-64
2023/10/30 10:28:48;;;;;;;1.35;0.90;;;;;13.80;97203.00;;;;5031643;28;20144;-65
2023/10/30 10:31:18;;;;;;;3.58;2.72;;;;;13.80;97201.00;;;;5031792;28;20049;-65
2023/10/30 10:33:48;;;;;;;13.73;9.52;;;;;13.80;97193.00;;;;5031146;28;20439;-65
2023/10/30 10:36:15;;;;;;;1.52;1.35;;;;;13.90;97202.00;;;;5031703;28;20462;-65
2023/10/30 10:38:56;;;;;;;1.13;0.80;;;;;13.90;97185.00;;;;5030479;28;20465;-64
2023/10/30 10:41:25;;;;;;;1.98;1.10;;;;;13.90;97189.00;;;;5031612;28;20088;-65
2023/10/30 10:43:52;;;;;;;0.73;0.63;;;;;13.90;97183.00;;;;5030992;28;20124;-64
2023/10/30 10:46:19;;;;;;;0.80;0.63;;;;;13.90;97166.00;;;;5031645;28;20053;-65
2023/10/30 10:48:46;;;;;;;2.85;0.60;;;;;13.90;97167.00;;;;5031591;28;20127;-65
2023/10/30 10:51:16;;;;;;;2.00;0.60;;;;;14.00;97157.00;;;;5031560;28;20379;-65
2023/10/30 10:53:45;;;;;;;1.85;0.68;;;;;14.10;97151.00;;;;5029730;28;20054;-65
2023/10/30 10:56:12;;;;;;;0.55;0.50;;;;;14.20;97152.00;;;;5030172;28;20042;-63
2023/10/30 10:58:46;;;;;;;1.08;0.70;;;;;14.20;97146.00;;;;5031517;28;20045;-62
2023/10/30 11:01:17;;;;;;;1.08;0.70;;;;;14.20;97145.00;;;;5035221;28;20095;-62
2023/10/30 11:03:45;;;;;;;1.67;0.55;;;;;14.20;97134.00;;;;5034546;28;20441;-62
2023/10/30 11:06:14;;;;;;;0.95;0.68;;;;;14.20;97130.00;;;;5035085;28;20109;-62
2023/10/30 11:09:00;;;;;;;1.00;0.80;;;;;14.30;97121.00;;;;5033671;28;20103;-62
2023/10/30 11:11:35;;;;;;;0.75;0.70;;;;;14.30;97107.00;;;;5034879;28;20047;-64
2023/10/30 11:14:05;;;;;;;2.30;1.00;;;;;14.40;97115.00;;;;5033221;28;20064;-63
2023/10/30 11:16:38;;;;;;;0.85;0.50;;;;;14.50;97111.00;;;;5034912;28;20120;-64
2023/10/30 11:19:06;;;;;;;1.92;0.77;;;;;14.40;97102.00;;;;5034685;28;20495;-64
2023/10/30 11:21:33;;;;;;;0.77;0.60;;;;;14.40;97102.00;;;;5034788;28;20049;-63
2023/10/30 11:23:59;;;;;;;4.05;1.20;;;;;14.50;97098.00;;;;5032935;28;20045;-64
2023/10/30 11:26:44;;;;;;;1.80;0.90;;;;;14.50;97095.00;;;;5034811;28;20477;-65
2023/10/30 11:29:23;;;;;;;1.35;1.20;;;;;14.60;97092.00;;;;5034791;28;20119;-64
2023/10/30 11:32:00;;;;;;;3.22;1.20;;;;;14.60;97085.00;;;;5033359;28;20045;-64
2023/10/30 11:34:32;;;;;;;2.58;1.23;;;;;14.70;97087.00;;;;5034096;28;20103;-64
2023/10/30 11:37:10;;;;;;;3.40;1.45;;;;;14.70;97076.00;;;;5034622;28;20128;-65
2023/10/30 11:39:49;;;;;;;3.67;1.13;;;;;14.80;97066.00;;;;5034385;28;20116;-64
2023/10/30 11:42:21;;;;;;;4.22;3.30;;;;;14.90;97059.00;;;;5034460;28;20095;-64
2023/10/30 11:44:52;;;;;;;3.22;1.45;;;;;15.00;97046.00;;;;5033881;28;20092;-64
2023/10/30 11:47:22;;;;;;;3.38;1.70;;;;;15.10;97043.00;;;;5033216;28;20144;-63
2023/10/30 11:49:49;;;;;;;4.80;2.53;;;;;15.10;97045.00;;;;5034330;28;20049;-65
2023/10/30 11:52:19;;;;;;;3.97;2.20;;;;;15.10;97035.00;;;;5032897;28;20140;-65
2023/10/30 11:54:46;;;;;;;2.05;1.70;;;;;15.20;97040.00;;;;5033637;28;20550;-64
2023/10/30 11:57:13;;;;;;;2.78;1.60;;;;;15.20;97029.00;;;;5034112;28;20046;-65
2023/10/30 11:59:40;;;;;;;1.52;1.17;;;;;15.40;97028.00;;;;5034185;28;20506;-65
2023/10/30 12:02:07;;;;;;;1.23;1.13;;;;;15.50;97017.00;;;;5016533;28;20053;-65
2023/10/30 12:04:34;;;;;;;2.13;1.73;;;;;15.50;97021.00;;;;5032393;28;20049;-64
2023/10/30 12:07:01;;;;;;;2.20;1.52;;;;;15.60;97026.00;;;;5034120;28;20049;-65
2023/10/30 12:09:27;;;;;;;2.88;1.70;;;;;15.60;97019.00;;;;5031987;28;20055;-65
2023/10/30 12:11:55;;;;;;;1.48;1.25;;;;;15.70;97013.00;;;;5033616;28;20064;-64
2023/10/30 12:14:23;;;;;;;2.03;1.35;;;;;15.60;97003.00;;;;5033131;28;20120;-64
2023/10/30 12:16:51;;;;;;;2.67;1.60;;;;;15.70;96992.00;;;;5032523;28;20042;-65
2023/10/30 12:19:21;;;;;;;2.80;1.67;;;;;15.70;96984.00;;;;5033674;28;20037;-65
2023/10/30 12:21:49;;;;;;;1.60;1.30;;;;;15.70;96980.00;;;;5033757;28;20076;-63